Time;durP1;ratioP1;P1;durP2;ratioP2;P2;SDS_P1;SDS_P2;PMS_P1;PMS_P2;Temp;Humidity;BMP_temperature;BMP_pressure;BME280_temperature;BME280_humidity;BME280_pressure;Samples;Min_cycle;Max_cycle;Signal;HPM_P1;HPM_P2
2022/01/25 00:10:14;;;;;;;13.63;12.67;;;;;;;-9.30;67.87;93942.94;5010802;28;20336;-79
2022/01/25 00:26:25;;;;;;;15.07;13.57;;;;;;;-9.10;65.02;93951.38;5011562;28;20207;-79
2022/01/25 00:29:04;;;;;;;13.97;12.77;;;;;;;-9.23;65.86;93951.59;5011049;28;20270;-80
2022/01/25 00:31:31;;;;;;;14.63;13.23;;;;;;;-9.09;65.54;93976.53;5011427;28;20250;-80
2022/01/25 00:33:56;;;;;;;13.97;12.80;;;;;;;-9.19;67.31;93967.31;5011847;28;20234;-80
2022/01/25 00:36:24;;;;;;;13.77;12.77;;;;;;;-9.40;67.12;93934.53;5011276;28;20218;-80
2022/01/25 00:38:51;;;;;;;12.87;11.73;;;;;;;-9.12;65.23;93974.28;5012207;28;20417;-79
2022/01/25 00:41:18;;;;;;;14.60;13.27;;;;;;;-9.17;65.30;93957.91;5010970;28;20214;-80
2022/01/25 00:43:44;;;;;;;15.73;14.37;;;;;;;-9.19;66.85;93973.19;5009488;28;20262;-80
2022/01/25 00:46:12;;;;;;;14.60;13.20;;;;;;;-9.03;65.73;93968.47;5010799;28;20278;-80
2022/01/25 00:48:44;;;;;;;16.77;15.10;;;;;;;-9.15;67.25;93966.16;5026596;28;20198;-80
2022/01/25 00:56:48;;;;;;;18.03;16.23;;;;;;;-8.92;67.17;93955.69;4970530;28;20208;-80
2022/01/25 00:59:18;;;;;;;14.10;12.80;;;;;;;-8.86;66.23;93946.78;5002573;28;20247;-80
2022/01/25 01:01:45;;;;;;;14.40;12.87;;;;;;;-8.96;66.51;93948.50;5012184;28;20217;-80
2022/01/25 01:04:11;;;;;;;14.30;13.07;;;;;;;-8.97;66.01;93952.78;5010121;28;20278;-80
2022/01/25 01:06:38;;;;;;;13.73;12.47;;;;;;;-9.03;65.90;93960.88;5010272;28;20199;-84
2022/01/25 01:09:11;;;;;;;15.83;14.43;;;;;;;-9.07;65.41;93951.94;5010123;28;20235;-80
2022/01/25 01:11:48;;;;;;;13.17;12.20;;;;;;;-9.22;65.33;93960.81;5008841;28;20199;-80
2022/01/25 01:14:21;;;;;;;12.80;11.97;;;;;;;-9.38;66.11;93914.97;5010077;28;20227;-80
2022/01/25 01:30:42;;;;;;;14.50;13.13;;;;;;;-8.75;67.02;93934.84;5008862;28;20233;-80
2022/01/25 01:33:43;;;;;;;15.43;13.93;;;;;;;-8.78;66.89;93935.06;5010626;28;20190;-80
2022/01/25 01:44:04;;;;;;;19.10;16.03;;;;;;;-8.70;69.87;93932.69;5010253;28;20244;-81
2022/01/25 01:46:37;;;;;;;13.40;12.13;;;;;;;-8.77;70.44;93916.44;5009758;28;20198;-81
2022/01/25 01:49:05;;;;;;;15.47;14.00;;;;;;;-8.54;69.98;93930.44;5013159;28;20243;-80
2022/01/25 01:51:34;;;;;;;13.20;12.17;;;;;;;-8.58;70.78;93935.91;5008854;28;20769;-80
2022/01/25 01:54:10;;;;;;;15.83;14.37;;;;;;;-8.60;71.00;93933.50;5008706;28;20211;-80
2022/01/25 01:56:37;;;;;;;14.33;13.13;;;;;;;-8.52;70.70;93933.66;5010244;28;20198;-80
2022/01/25 01:59:06;;;;;;;13.30;12.30;;;;;;;-8.50;70.94;93933.53;5009163;28;20261;-80
2022/01/25 02:01:32;;;;;;;14.17;12.87;;;;;;;-8.81;71.20;93884.75;5009915;28;20219;-80
2022/01/25 02:03:59;;;;;;;14.80;13.37;;;;;;;-8.39;70.80;93921.50;5008714;28;20261;-80
2022/01/25 02:06:26;;;;;;;16.60;14.87;;;;;;;-8.80;71.15;93888.09;5008950;28;20198;-80
2022/01/25 02:08:51;;;;;;;14.73;13.43;;;;;;;-8.53;70.61;93909.25;5008200;28;20219;-80
2022/01/25 02:11:17;;;;;;;15.67;13.97;;;;;;;-8.80;70.33;93883.84;5009028;28;20214;-79
2022/01/25 02:13:45;;;;;;;15.47;13.97;;;;;;;-8.80;71.28;93904.06;5009209;28;20226;-80
2022/01/25 02:16:20;;;;;;;15.63;14.13;;;;;;;-8.87;71.77;93882.75;5009129;28;20183;-80
2022/01/25 02:24:14;;;;;;;14.87;13.47;;;;;;;-8.70;71.85;93901.56;5008907;28;20338;-80
2022/01/25 02:26:39;;;;;;;15.20;13.70;;;;;;;-8.96;71.72;93859.97;5008446;28;20187;-80
2022/01/25 02:29:05;;;;;;;15.80;14.40;;;;;;;-8.74;72.50;93897.66;5009180;28;20295;-79
2022/01/25 02:31:30;;;;;;;15.37;13.93;;;;;;;-8.82;76.10;93822.44;5008186;28;20207;-79
2022/01/25 02:33:56;;;;;;;14.17;13.00;;;;;;;-8.77;72.29;93865.03;5008187;28;20239;-80
2022/01/25 02:36:27;;;;;;;15.33;13.80;;;;;;;-8.47;74.25;93888.47;5008335;28;20203;-80
2022/01/25 02:38:57;;;;;;;14.53;13.23;;;;;;;-8.86;73.88;93845.63;5008858;28;20254;-80
2022/01/25 02:41:23;;;;;;;16.13;14.43;;;;;;;-8.64;72.86;93883.31;5008837;28;20222;-81
2022/01/25 02:43:50;;;;;;;15.43;13.50;;;;;;;-8.68;72.52;93884.47;5008597;28;20195;-80
2022/01/25 02:48:55;;;;;;;14.63;13.30;;;;;;;-8.71;72.23;93882.22;5010038;28;20206;-81
2022/01/25 02:51:28;;;;;;;13.67;12.43;;;;;;;-8.61;71.67;93875.44;5009391;28;20184;-80
2022/01/25 02:53:53;;;;;;;16.03;14.50;;;;;;;-8.89;72.33;93856.81;4999919;28;20294;-80
2022/01/25 02:56:20;;;;;;;14.17;12.87;;;;;;;-8.83;72.83;93860.53;5009358;28;20194;-81
2022/01/25 02:58:46;;;;;;;16.30;14.80;;;;;;;-8.72;71.61;93871.31;5007933;28;20227;-80
2022/01/25 03:01:12;;;;;;;15.80;14.40;;;;;;;-8.71;71.40;93877.97;5009144;28;20223;-81
2022/01/25 03:03:38;;;;;;;16.53;13.53;;;;;;;-8.81;71.54;93869.56;5008436;28;20195;-80
2022/01/25 03:06:04;;;;;;;15.07;13.83;;;;;;;-8.83;71.26;93865.59;5009514;28;20196;-79
2022/01/25 03:08:30;;;;;;;15.07;13.90;;;;;;;-9.14;71.46;93826.97;5008982;28;20188;-80
2022/01/25 03:10:55;;;;;;;16.20;14.50;;;;;;;-8.97;72.24;93860.91;5009330;28;20242;-80
2022/01/25 03:13:26;;;;;;;16.37;14.73;;;;;;;-9.16;72.48;93863.41;5009000;28;20218;-81
2022/01/25 03:21:04;;;;;;;18.00;15.80;;;;;;;-9.08;72.92;93861.84;5007720;28;20301;-78
2022/01/25 03:23:31;;;;;;;16.53;14.83;;;;;;;-9.16;72.96;93854.09;5009578;28;20200;-78
2022/01/25 03:25:57;;;;;;;17.87;15.43;;;;;;;-9.13;72.49;93866.47;5008875;28;20215;-81
2022/01/25 03:28:22;;;;;;;15.53;14.13;;;;;;;-9.19;71.94;93849.31;5012248;28;20832;-79
2022/01/25 03:30:48;;;;;;;17.47;15.53;;;;;;;-9.01;71.75;93867.19;5012393;28;20227;-78
2022/01/25 03:33:15;;;;;;;16.53;14.90;;;;;;;-9.55;73.34;93849.91;5013392;28;20242;-78
2022/01/25 03:35:42;;;;;;;17.80;16.20;;;;;;;-9.30;72.69;93859.53;5011888;28;20219;-79
2022/01/25 03:38:08;;;;;;;16.47;14.97;;;;;;;-9.64;73.64;93837.22;5012368;28;20218;-78
2022/01/25 03:40:33;;;;;;;16.50;14.77;;;;;;;-9.94;72.02;93796.88;5010663;28;20227;-79
2022/01/25 03:43:00;;;;;;;17.03;15.40;;;;;;;-9.72;72.53;93822.72;5011958;28;20184;-79
2022/01/25 03:45:31;;;;;;;19.63;16.30;;;;;;;-9.66;71.84;93844.16;5012388;28;20302;-78
2022/01/25 03:50:44;;;;;;;22.87;17.17;;;;;;;-10.05;71.58;93777.56;5011087;28;20229;-79
2022/01/25 03:53:12;;;;;;;19.87;16.20;;;;;;;-9.69;70.58;93831.75;5012341;28;20359;-79
2022/01/25 03:55:38;;;;;;;17.80;15.93;;;;;;;-9.78;72.42;93845.97;5011152;28;20226;-78
2022/01/25 03:58:04;;;;;;;17.67;15.90;;;;;;;-9.80;71.51;93840.25;5011994;28;20226;-79
2022/01/25 04:00:30;;;;;;;16.47;14.97;;;;;;;-10.02;71.92;93822.75;5010727;28;20238;-80
2022/01/25 04:03:03;;;;;;;18.20;15.63;;;;;;;-10.29;73.24;93794.78;5012087;28;20203;-78
2022/01/25 04:06:11;;;;;;;17.23;15.63;;;;;;;-9.98;72.16;93839.25;5012473;28;20226;-78
2022/01/25 04:08:19;;;;;;;17.17;15.37;;;;;;;-10.06;71.90;93841.59;5004193;28;20218;-79
2022/01/25 04:10:45;;;;;;;16.13;14.57;;;;;;;-9.87;78.20;93841.69;5011498;28;20274;-79
2022/01/25 04:13:11;;;;;;;16.90;15.20;;;;;;;-9.95;73.64;93833.13;5011669;28;20191;-79
2022/01/25 04:15:46;;;;;;;18.47;16.00;;;;;;;-10.07;71.85;93820.59;5011669;28;20224;-79
2022/01/25 04:20:44;;;;;;;17.23;15.63;;;;;;;-9.93;74.66;93833.81;5012337;28;20233;-79
2022/01/25 04:25:54;;;;;;;18.40;16.63;;;;;;;-10.03;74.02;93806.00;5008417;28;20222;-78
2022/01/25 04:28:19;;;;;;;16.43;14.93;;;;;;;-9.90;72.88;93824.28;5010432;28;20183;-78
2022/01/25 04:30:44;;;;;;;16.60;15.00;;;;;;;-10.00;73.20;93820.91;5010577;28;20220;-78
2022/01/25 04:33:19;;;;;;;17.20;15.40;;;;;;;-9.99;73.32;93809.84;5011960;28;20202;-78
2022/01/25 04:35:58;;;;;;;17.10;15.30;;;;;;;-10.01;74.12;93799.13;5009716;28;20290;-78
2022/01/25 04:49:27;;;;;;;20.13;15.70;;;;;;;-10.41;74.01;93805.88;5009628;28;20285;-79
2022/01/25 04:52:04;;;;;;;20.97;16.10;;;;;;;-10.40;74.83;93792.34;5010855;28;20200;-79
2022/01/25 05:00:22;;;;;;;18.23;16.40;;;;;;;-10.02;74.40;93818.50;5010023;28;20223;-78
2022/01/25 05:02:41;;;;;;;19.30;15.70;;;;;;;-10.12;74.82;93812.66;5000633;28;20230;-78
2022/01/25 05:05:53;;;;;;;17.70;15.73;;;;;;;-10.18;74.01;93794.69;5009840;28;20317;-78
2022/01/25 05:08:14;;;;;;;17.87;15.90;;;;;;;-10.33;75.43;93808.56;5006710;28;20202;-78
2022/01/25 05:10:49;;;;;;;17.90;16.03;;;;;;;-10.71;76.01;93804.13;5009804;28;20296;-77
2022/01/25 05:13:35;;;;;;;23.23;18.13;;;;;;;-10.47;77.20;93831.56;5006382;28;20214;-78
2022/01/25 05:16:05;;;;;;;19.63;17.63;;;;;;;-10.45;76.49;93814.59;5009827;28;20216;-78
2022/01/25 05:18:46;;;;;;;21.90;16.70;;;;;;;-10.49;76.64;93823.34;5010245;28;20195;-78
2022/01/25 05:23:56;;;;;;;16.03;14.73;;;;;;;-10.65;76.83;93830.56;5009447;28;20267;-78
2022/01/25 05:26:22;;;;;;;23.83;16.87;;;;;;;-10.81;76.71;93778.03;5010627;28;20183;-78
2022/01/25 05:28:48;;;;;;;24.90;18.90;;;;;;;-10.35;75.90;93825.56;5005662;28;20191;-79
2022/01/25 05:31:13;;;;;;;27.27;17.83;;;;;;;-10.51;75.98;93812.59;5010981;28;20202;-78
2022/01/25 05:33:39;;;;;;;19.33;15.83;;;;;;;-10.48;76.61;93828.28;5007983;28;20263;-78
2022/01/25 05:36:04;;;;;;;20.40;18.07;;;;;;;-10.61;75.82;93796.59;5009977;28;20227;-78
2022/01/25 05:38:30;;;;;;;29.50;20.47;;;;;;;-11.02;76.58;93753.75;5010379;28;20202;-79
2022/01/25 05:41:01;;;;;;;28.10;19.83;;;;;;;-10.71;78.80;93803.31;5009715;28;20282;-83
2022/01/25 05:46:18;;;;;;;23.67;18.07;;;;;;;-10.89;77.70;93751.81;5010375;28;20222;-78
2022/01/25 05:48:45;;;;;;;23.93;18.97;;;;;;;-10.62;77.30;93792.47;5009742;28;20190;-80
2022/01/25 05:51:11;;;;;;;22.60;18.10;;;;;;;-10.89;77.07;93754.34;5010712;28;20227;-85
2022/01/25 05:53:37;;;;;;;25.00;17.47;;;;;;;-10.85;76.52;93796.06;5008867;28;20192;-84
2022/01/25 05:56:03;;;;;;;18.63;16.40;;;;;;;-10.91;75.86;93753.69;5005077;28;20273;-87
2022/01/25 05:58:29;;;;;;;25.57;19.07;;;;;;;-10.81;76.19;93810.00;5007435;28;20307;-84
2022/01/25 06:00:54;;;;;;;26.30;17.93;;;;;;;-10.51;75.06;93799.97;5007509;28;20232;-81
2022/01/25 06:03:20;;;;;;;23.87;18.70;;;;;;;-10.47;75.56;93811.41;5006894;28;20195;-84
2022/01/25 06:05:46;;;;;;;21.87;17.67;;;;;;;-10.58;76.04;93798.84;5009792;28;20274;-87
2022/01/25 06:08:11;;;;;;;20.40;16.53;;;;;;;-10.76;74.52;93770.09;5010324;28;20188;-85
2022/01/25 06:10:37;;;;;;;24.77;19.33;;;;;;;-10.51;74.48;93802.50;5007040;28;20211;-89
2022/01/25 06:13:03;;;;;;;14.63;13.10;;;;;;;-10.52;74.81;93813.50;5006894;28;20249;-88
2022/01/25 06:15:29;;;;;;;26.57;19.30;;;;;;;-10.57;75.20;93793.72;5010128;28;20211;-90
2022/01/25 06:17:54;;;;;;;28.13;20.80;;;;;;;-10.71;75.21;93763.78;5008595;28;20199;-90
2022/01/25 06:20:20;;;;;;;25.50;18.97;;;;;;;-10.53;73.94;93766.50;5008489;28;20282;-86
2022/01/25 06:22:46;;;;;;;30.83;19.83;;;;;;;-10.55;73.36;93754.00;5008565;28;20206;-78
2022/01/25 06:25:12;;;;;;;26.73;18.90;;;;;;;-10.51;73.96;93775.56;5007243;28;20286;-83
2022/01/25 06:27:39;;;;;;;28.87;19.63;;;;;;;-10.28;72.52;93792.13;5006973;28;20373;-82
2022/01/25 06:30:14;;;;;;;20.47;17.70;;;;;;;-10.32;73.90;93782.41;5005333;28;20290;-82
2022/01/25 06:32:41;;;;;;;31.27;19.80;;;;;;;-10.40;74.36;93782.25;5007291;28;20195;-83
2022/01/25 06:35:07;;;;;;;28.90;21.10;;;;;;;-10.09;71.72;93836.84;5007881;28;20227;-86
2022/01/25 06:37:34;;;;;;;29.17;20.43;;;;;;;-10.08;72.13;93823.28;5008131;28;20244;-85
2022/01/25 06:39:59;;;;;;;33.20;21.73;;;;;;;-10.80;71.61;93720.84;5007971;28;20882;-86
2022/01/25 06:42:31;;;;;;;22.40;18.07;;;;;;;-10.55;72.18;93750.72;5007253;28;20198;-86
2022/01/25 06:45:00;;;;;;;26.67;19.77;;;;;;;-10.24;72.75;93792.69;5007633;28;20227;-83
2022/01/25 06:47:26;;;;;;;26.70;19.87;;;;;;;-9.86;72.04;93833.19;5008788;28;20199;-86
2022/01/25 06:49:51;;;;;;;34.33;20.40;;;;;;;-10.32;73.87;93805.91;5007486;28;20230;-86
2022/01/25 06:52:17;;;;;;;31.40;20.17;;;;;;;-10.14;74.14;93799.34;5035688;28;20225;-87
2022/01/25 06:54:42;;;;;;;23.70;19.87;;;;;;;-9.64;71.71;93817.03;5006127;28;20300;-90
2022/01/25 06:57:08;;;;;;;26.00;19.53;;;;;;;-9.47;71.09;93817.19;5007701;28;20219;-88
2022/01/25 06:59:33;;;;;;;27.13;20.10;;;;;;;-9.41;70.25;93806.56;5008165;28;20246;-86
2022/01/25 07:01:59;;;;;;;24.87;19.73;;;;;;;-9.43;70.84;93805.91;5009803;28;20219;-80
2022/01/25 07:04:24;;;;;;;29.10;20.13;;;;;;;-9.53;70.68;93795.00;5009939;28;20226;-88
2022/01/25 07:06:50;;;;;;;29.87;19.90;;;;;;;-9.65;71.48;93773.28;5011808;28;20214;-86
2022/01/25 07:09:15;;;;;;;24.27;20.13;;;;;;;-9.82;71.46;93751.16;5010723;28;20221;-87
2022/01/25 07:11:41;;;;;;;25.63;19.80;;;;;;;-9.50;70.78;93779.56;5010566;28;21209;-86
2022/01/25 07:14:06;;;;;;;27.00;20.73;;;;;;;-9.30;70.61;93816.56;5011667;28;20262;-86
2022/01/25 07:16:32;;;;;;;27.57;20.37;;;;;;;-9.38;70.57;93787.81;5008164;28;20233;-86
2022/01/25 07:18:57;;;;;;;33.60;22.27;;;;;;;-9.29;70.74;93787.81;5009995;28;20235;-85
2022/01/25 07:21:23;;;;;;;30.07;21.27;;;;;;;-9.16;70.77;93783.31;5011900;28;20230;-87
2022/01/25 07:23:48;;;;;;;22.07;18.30;;;;;;;-9.23;70.18;93741.78;5009921;28;20195;-85
2022/01/25 07:26:13;;;;;;;24.10;20.30;;;;;;;-8.99;70.36;93767.47;5011118;28;20187;-87
2022/01/25 07:28:39;;;;;;;28.57;20.27;;;;;;;-8.79;70.78;93799.41;5009089;28;20222;-79
2022/01/25 07:31:05;;;;;;;32.27;21.97;;;;;;;-8.87;71.47;93784.09;5011601;28;20199;-85
2022/01/25 07:33:30;;;;;;;29.87;21.27;;;;;;;-8.86;71.45;93789.97;5011179;28;20235;-80
2022/01/25 07:35:56;;;;;;;30.63;22.03;;;;;;;-8.53;71.37;93797.91;5034674;28;20207;-84
2022/01/25 07:38:22;;;;;;;27.87;21.00;;;;;;;-8.62;70.13;93743.03;5011335;28;20219;-78
2022/01/25 07:40:47;;;;;;;27.20;18.57;;;;;;;-8.48;68.02;93767.13;5009552;28;20246;-80
2022/01/25 07:43:13;;;;;;;21.03;17.80;;;;;;;-8.42;68.47;93762.31;5011353;28;20192;-82
2022/01/25 07:45:39;;;;;;;21.00;18.03;;;;;;;-8.44;68.00;93786.97;5010213;28;20231;-82
2022/01/25 07:48:06;;;;;;;21.97;17.90;;;;;;;-8.43;68.78;93764.97;5011385;28;20639;-81
2022/01/25 07:50:33;;;;;;;20.17;16.67;;;;;;;-8.25;67.69;93791.19;5010790;28;20227;-85
2022/01/25 07:52:59;;;;;;;17.40;15.70;;;;;;;-8.72;67.38;93747.34;5009468;28;20195;-84
2022/01/25 07:55:24;;;;;;;20.57;16.00;;;;;;;-8.68;68.43;93784.09;5011189;28;20291;-84
2022/01/25 07:57:50;;;;;;;15.40;13.90;;;;;;;-8.45;67.80;93790.44;5009635;28;20231;-82
2022/01/25 08:00:16;;;;;;;20.70;17.00;;;;;;;-8.25;67.55;93787.84;5008796;28;20223;-79
2022/01/25 08:02:44;;;;;;;17.83;16.17;;;;;;;-8.36;68.39;93797.19;5010247;28;20207;-81
2022/01/25 08:05:12;;;;;;;21.17;17.17;;;;;;;-8.49;68.36;93800.97;5010849;28;20775;-81
2022/01/25 08:07:37;;;;;;;19.37;16.80;;;;;;;-8.81;68.28;93750.66;5010618;28;20199;-84
2022/01/25 08:10:03;;;;;;;16.00;14.67;;;;;;;-8.89;67.75;93737.94;5010099;28;20242;-79
2022/01/25 08:12:29;;;;;;;18.17;16.27;;;;;;;-8.63;68.19;93771.81;5009650;28;20183;-79
2022/01/25 08:14:57;;;;;;;16.13;14.47;;;;;;;-8.70;68.01;93754.81;5008128;28;20273;-79
2022/01/25 08:17:22;;;;;;;21.30;17.30;;;;;;;-8.58;68.22;93767.16;5009679;28;20198;-81
2022/01/25 08:19:48;;;;;;;20.23;16.93;;;;;;;-8.50;68.43;93767.25;5011420;28;20243;-80
2022/01/25 08:22:13;;;;;;;24.03;19.30;;;;;;;-8.12;70.50;93755.41;5009485;28;20195;-80
2022/01/25 08:24:39;;;;;;;19.30;17.57;;;;;;;-8.50;68.10;93764.72;5007960;28;20229;-80
2022/01/25 08:27:04;;;;;;;20.10;18.00;;;;;;;-8.39;68.73;93776.44;5008475;28;20203;-79
2022/01/25 08:29:30;;;;;;;20.23;17.60;;;;;;;-8.27;67.97;93782.13;5009719;28;20243;-79
2022/01/25 08:31:55;;;;;;;18.30;16.47;;;;;;;-8.14;66.91;93780.06;5011314;28;20207;-80
2022/01/25 08:34:21;;;;;;;24.63;18.43;;;;;;;-8.15;67.13;93760.75;5008406;28;20227;-81
2022/01/25 08:36:46;;;;;;;19.67;16.90;;;;;;;-8.08;67.40;93782.03;5011472;28;20195;-79
2022/01/25 08:39:12;;;;;;;20.97;18.57;;;;;;;-8.07;67.78;93773.50;5009048;28;20231;-80
2022/01/25 08:41:38;;;;;;;23.60;19.20;;;;;;;-8.10;67.33;93748.44;5008734;28;20207;-79
2022/01/25 08:44:04;;;;;;;19.57;16.50;;;;;;;-7.92;67.29;93777.19;5009723;28;20262;-80
2022/01/25 08:46:29;;;;;;;20.63;18.03;;;;;;;-7.99;67.08;93745.72;5009456;28;20202;-80
2022/01/25 08:48:55;;;;;;;26.10;18.73;;;;;;;-7.61;67.04;93775.97;5010228;28;20322;-81
2022/01/25 08:51:20;;;;;;;19.57;16.87;;;;;;;-7.78;65.37;93708.28;5009277;28;20234;-80
2022/01/25 08:53:46;;;;;;;21.67;18.87;;;;;;;-8.11;65.72;93689.41;5008037;28;20195;-83
2022/01/25 08:56:11;;;;;;;20.23;15.90;;;;;;;-7.49;65.98;93735.06;5008385;28;20263;-79
2022/01/25 08:58:37;;;;;;;21.47;17.67;;;;;;;-7.41;64.09;93741.94;5008494;28;20316;-80
2022/01/25 09:01:04;;;;;;;20.60;17.00;;;;;;;-7.26;63.64;93751.44;5010039;28;20211;-80
2022/01/25 09:03:29;;;;;;;25.67;18.07;;;;;;;-7.30;64.14;93757.72;5009330;28;20230;-78
2022/01/25 09:05:55;;;;;;;24.63;17.60;;;;;;;-7.36;64.11;93760.06;5009762;28;20223;-75
2022/01/25 09:08:26;;;;;;;22.40;17.50;;;;;;;-7.32;64.12;93758.81;5007609;28;20205;-78
2022/01/25 09:10:57;;;;;;;17.30;15.13;;;;;;;-7.50;63.72;93725.06;5009214;28;20318;-84
2022/01/25 09:13:23;;;;;;;20.27;16.73;;;;;;;-7.46;65.10;93755.06;5010670;28;21013;-77
2022/01/25 09:15:49;;;;;;;29.07;17.70;;;;;;;-7.24;64.18;93713.25;5008078;28;20223;-79
2022/01/25 09:18:14;;;;;;;29.23;20.17;;;;;;;-6.93;63.36;93722.88;5009718;28;20251;-86
2022/01/25 09:20:40;;;;;;;22.50;18.53;;;;;;;-7.08;63.45;93701.50;5008203;28;20238;-85
2022/01/25 09:23:05;;;;;;;26.70;17.53;;;;;;;-7.06;63.34;93729.25;5008044;28;20206;-80
2022/01/25 09:25:31;;;;;;;16.97;15.17;;;;;;;-6.98;63.67;93749.63;5005988;28;20310;-82
2022/01/25 09:27:58;;;;;;;25.37;19.70;;;;;;;-7.18;63.78;93732.97;5008188;28;20191;-80
2022/01/25 09:30:23;;;;;;;26.40;18.90;;;;;;;-7.18;62.92;93721.06;5006555;28;20215;-79
2022/01/25 09:32:49;;;;;;;18.63;15.67;;;;;;;-6.99;62.28;93742.97;5006375;28;20295;-80
2022/01/25 09:35:15;;;;;;;18.60;16.60;;;;;;;-6.69;62.09;93740.00;5008823;28;20226;-75
2022/01/25 09:37:41;;;;;;;21.53;18.37;;;;;;;-6.80;62.05;93730.88;5008045;28;20198;-78
2022/01/25 09:40:07;;;;;;;24.20;17.47;;;;;;;-6.82;61.87;93724.38;5008760;28;20230;-77
2022/01/25 09:42:33;;;;;;;26.87;18.70;;;;;;;-6.78;63.25;93738.34;5007593;28;20254;-78
2022/01/25 09:44:59;;;;;;;15.13;13.67;;;;;;;-6.70;61.56;93748.56;5007515;28;20247;-81
2022/01/25 09:47:24;;;;;;;19.73;17.70;;;;;;;-6.94;63.21;93736.47;5007649;28;20207;-79
2022/01/25 09:49:50;;;;;;;25.73;17.70;;;;;;;-6.75;62.93;93735.50;5007670;28;20299;-80
2022/01/25 09:52:18;;;;;;;23.40;17.63;;;;;;;-6.83;63.13;93717.69;5008291;28;20346;-78
2022/01/25 09:54:53;;;;;;;22.73;17.73;;;;;;;-6.81;62.44;93716.63;5006925;28;20239;-80
2022/01/25 09:57:19;;;;;;;23.80;17.97;;;;;;;-6.73;63.01;93700.63;5009290;28;20199;-79
2022/01/25 09:59:44;;;;;;;26.67;18.90;;;;;;;-6.68;62.66;93716.22;5005943;28;20227;-79
2022/01/25 10:02:11;;;;;;;21.07;18.87;;;;;;;-7.13;64.11;93685.13;5008818;28;20216;-81
2022/01/25 10:04:40;;;;;;;25.53;18.53;;;;;;;-6.68;64.15;93706.84;5008287;28;20253;-80
2022/01/25 10:07:09;;;;;;;28.13;18.43;;;;;;;-7.08;63.20;93728.63;5006947;28;20192;-80
2022/01/25 10:09:39;;;;;;;25.63;17.70;;;;;;;-6.88;63.68;93714.81;5008915;28;20225;-80
2022/01/25 10:12:23;;;;;;;24.93;17.87;;;;;;;-6.99;63.43;93697.28;5007525;28;20199;-81
2022/01/25 10:15:01;;;;;;;24.10;18.93;;;;;;;-6.75;63.95;93713.47;5006705;28;20227;-81
2022/01/25 10:17:32;;;;;;;17.43;15.83;;;;;;;-7.01;63.32;93686.47;5007113;28;20246;-81
2022/01/25 10:19:57;;;;;;;17.07;15.43;;;;;;;-7.26;63.46;93665.22;5006675;28;20230;-81
2022/01/25 10:22:23;;;;;;;26.33;18.97;;;;;;;-7.21;64.21;93639.41;5006229;28;20202;-80
2022/01/25 10:24:48;;;;;;;25.40;18.37;;;;;;;-6.92;63.82;93680.50;5006503;28;20215;-81
2022/01/25 10:27:14;;;;;;;26.60;19.03;;;;;;;-6.92;64.25;93660.22;5006705;28;20200;-81
2022/01/25 10:29:41;;;;;;;27.13;19.13;;;;;;;-6.56;63.35;93702.31;5008938;28;20223;-80
2022/01/25 10:32:15;;;;;;;23.40;18.80;;;;;;;-6.71;64.00;93691.91;5008207;28;20192;-80
2022/01/25 10:34:47;;;;;;;25.33;18.43;;;;;;;-6.49;63.80;93693.19;5005642;28;20218;-82
2022/01/25 10:37:17;;;;;;;22.33;18.27;;;;;;;-6.45;63.93;93684.31;5007508;28;20195;-79
2022/01/25 10:39:48;;;;;;;26.30;19.00;;;;;;;-6.26;68.16;93689.16;5005906;28;20235;-80
2022/01/25 10:42:23;;;;;;;24.03;18.80;;;;;;;-5.99;64.06;93691.47;5007990;28;20202;-82
2022/01/25 10:45:10;;;;;;;28.03;20.07;;;;;;;-6.05;65.39;93693.84;5005896;28;20253;-78
2022/01/25 10:47:51;;;;;;;28.93;20.60;;;;;;;-6.01;63.82;93680.69;5006317;28;20191;-77
2022/01/25 10:50:18;;;;;;;29.47;18.97;;;;;;;-5.93;63.14;93690.88;5007408;28;20294;-79
2022/01/25 10:52:45;;;;;;;20.53;17.33;;;;;;;-6.28;63.43;93667.38;5007198;28;20230;-79
2022/01/25 10:55:11;;;;;;;24.63;20.60;;;;;;;-6.33;64.48;93674.69;5006704;28;20369;-75
2022/01/25 10:57:37;;;;;;;27.50;20.93;;;;;;;-6.30;64.17;93656.59;5007860;28;20257;-80
2022/01/25 11:00:12;;;;;;;29.87;21.93;;;;;;;-6.15;64.13;93660.16;5006607;28;20242;-74
2022/01/25 11:02:51;;;;;;;27.03;19.43;;;;;;;-6.03;63.82;93666.53;5006527;28;20198;-77
2022/01/25 11:05:18;;;;;;;26.63;19.37;;;;;;;-6.14;63.87;93662.53;5006358;28;20230;-78
2022/01/25 11:07:44;;;;;;;23.37;19.00;;;;;;;-6.22;64.83;93661.69;5005223;28;20191;-83
2022/01/25 11:10:15;;;;;;;28.10;20.73;;;;;;;-6.16;64.59;93658.56;5005875;28;21138;-79
2022/01/25 11:12:47;;;;;;;27.63;21.47;;;;;;;-6.19;64.74;93644.41;5006985;28;20188;-77
2022/01/25 11:15:13;;;;;;;27.33;19.77;;;;;;;-6.30;64.57;93614.19;5007571;28;20238;-77
2022/01/25 11:17:40;;;;;;;32.47;18.90;;;;;;;-6.27;65.29;93628.34;5007098;28;20195;-79
2022/01/25 11:20:06;;;;;;;28.37;21.13;;;;;;;-6.24;64.30;93628.81;5007778;28;20242;-80
2022/01/25 11:22:32;;;;;;;29.40;21.00;;;;;;;-5.89;64.82;93651.50;5007328;28;20203;-79
2022/01/25 11:25:00;;;;;;;25.30;20.07;;;;;;;-6.03;64.38;93656.38;5006174;28;20270;-81
2022/01/25 11:27:28;;;;;;;26.20;21.37;;;;;;;-6.02;65.44;93653.69;5006663;28;20188;-79
2022/01/25 11:30:00;;;;;;;29.60;21.50;;;;;;;-5.83;64.66;93645.78;5006969;28;20243;-79
2022/01/25 11:32:32;;;;;;;27.53;21.83;;;;;;;-5.78;64.39;93630.03;5007155;28;20194;-78
2022/01/25 11:34:59;;;;;;;27.30;20.07;;;;;;;-5.68;64.10;93639.09;5007858;28;20234;-79
2022/01/25 11:37:44;;;;;;;27.97;22.43;;;;;;;-5.76;64.40;93635.78;5007753;28;20191;-79
2022/01/25 11:40:21;;;;;;;26.27;20.90;;;;;;;-5.74;64.47;93626.22;5006048;28;20287;-77
2022/01/25 11:42:53;;;;;;;26.53;19.20;;;;;;;-5.59;63.82;93625.47;5006378;28;20209;-78
2022/01/25 11:45:22;;;;;;;26.60;19.77;;;;;;;-5.99;65.01;93617.78;5005795;28;20235;-82
2022/01/25 11:47:50;;;;;;;28.07;21.07;;;;;;;-5.86;65.23;93615.59;5009247;28;20195;-84
2022/01/25 11:50:17;;;;;;;26.00;18.60;;;;;;;-5.82;64.77;93609.25;5010504;28;20634;-83
2022/01/25 11:52:49;;;;;;;28.70;20.10;;;;;;;-5.85;64.71;93586.69;5011428;28;20207;-83
2022/01/25 11:55:24;;;;;;;25.17;19.07;;;;;;;-6.00;64.87;93577.28;5009840;28;20271;-81
2022/01/25 11:57:57;;;;;;;25.73;19.03;;;;;;;-6.01;65.58;93581.59;5008018;28;20226;-80
2022/01/25 12:00:44;;;;;;;26.20;19.37;;;;;;;-5.74;64.97;93596.53;5010618;28;20226;-82
2022/01/25 12:03:35;;;;;;;26.53;19.53;;;;;;;-5.78;65.06;93597.78;5008544;28;20210;-81
2022/01/25 12:06:18;;;;;;;27.20;19.30;;;;;;;-5.94;65.34;93569.84;5007341;28;20337;-82
2022/01/25 12:12:13;;;;;;;25.00;18.93;;;;;;;-5.83;65.54;93589.88;4998150;28;20290;-81
2022/01/25 12:14:48;;;;;;;26.10;19.20;;;;;;;-5.94;64.83;93595.25;5009402;28;20227;-77
2022/01/25 12:17:18;;;;;;;28.30;21.33;;;;;;;-5.80;65.45;93581.91;5010029;28;20203;-79
2022/01/25 12:20:00;;;;;;;32.40;22.53;;;;;;;-5.64;65.18;93576.03;5009180;28;20290;-75
2022/01/25 12:22:37;;;;;;;25.23;18.43;;;;;;;-5.73;64.92;93582.88;5035223;28;20191;-80
2022/01/25 12:25:25;;;;;;;31.57;21.17;;;;;;;-5.84;65.13;93574.78;5008935;28;20265;-78
2022/01/25 12:27:59;;;;;;;24.93;18.73;;;;;;;-5.62;65.10;93580.00;5007493;28;20232;-78
2022/01/25 12:30:24;;;;;;;26.63;22.03;;;;;;;-5.65;65.02;93579.53;5007671;28;20262;-78
2022/01/25 12:33:04;;;;;;;31.47;19.20;;;;;;;-5.64;64.57;93576.84;5010140;28;20191;-78
2022/01/25 12:35:44;;;;;;;29.07;20.90;;;;;;;-5.55;68.59;93575.88;5008895;28;20232;-78
2022/01/25 12:38:39;;;;;;;29.53;21.60;;;;;;;-5.49;64.97;93570.16;5007563;28;20191;-77
2022/01/25 12:41:06;;;;;;;31.67;19.83;;;;;;;-5.27;64.51;93559.34;5035655;28;20307;-79
2022/01/25 12:43:38;;;;;;;29.83;21.27;;;;;;;-5.36;65.56;93556.97;5004864;28;20202;-77
2022/01/25 12:46:13;;;;;;;33.20;20.67;;;;;;;-5.20;65.06;93552.63;5002847;28;20192;-79
2022/01/25 12:48:52;;;;;;;25.33;20.17;;;;;;;-5.24;64.00;93550.56;5004801;28;20250;-78
2022/01/25 12:51:22;;;;;;;28.53;23.33;;;;;;;-5.27;63.92;93548.34;5005477;28;20195;-79
2022/01/25 12:53:50;;;;;;;31.87;21.73;;;;;;;-5.31;64.79;93517.34;5006440;28;20199;-79
2022/01/25 12:56:20;;;;;;;31.83;21.77;;;;;;;-5.19;64.32;93541.53;5007604;28;20191;-79
2022/01/25 12:58:50;;;;;;;28.77;22.13;;;;;;;-5.33;63.64;93532.00;5005802;28;20271;-77
2022/01/25 13:01:19;;;;;;;29.47;20.80;;;;;;;-5.47;63.13;93480.97;5006083;28;20217;-76